sensor_id;sensor_type;location;lat;lon;timestamp;pressure;altitude;pressure_sealevel;temperature;humidity
50292;BME280;36190;54.980;73.388;2022-10-18T00:02:21;100703.19;;;4.32;86.69
50292;BME280;36190;54.980;73.388;2022-10-18T00:04:49;100700.69;;;4.30;86.69
50292;BME280;36190;54.980;73.388;2022-10-18T00:07:16;100696.13;;;4.32;86.61
50292;BME280;36190;54.980;73.388;2022-10-18T00:09:45;100694.19;;;4.34;86.86
50292;BME280;36190;54.980;73.388;2022-10-18T00:12:12;100691.31;;;4.37;86.86
50292;BME280;36190;54.980;73.388;2022-10-18T00:14:39;100697.31;;;4.39;86.58
50292;BME280;36190;54.980;73.388;2022-10-18T00:17:07;100691.31;;;4.37;86.58
50292;BME280;36190;54.980;73.388;2022-10-18T00:19:34;100694.91;;;4.36;86.57
50292;BME280;36190;54.980;73.388;2022-10-18T00:22:01;100688.78;;;4.36;86.43
50292;BME280;36190;54.980;73.388;2022-10-18T00:24:29;100687.81;;;4.37;86.41
50292;BME280;36190;54.980;73.388;2022-10-18T00:26:58;100693.97;;;4.37;86.53
50292;BME280;36190;54.980;73.388;2022-10-18T00:29:25;100696.59;;;4.37;86.44
50292;BME280;36190;54.980;73.388;2022-10-18T00:31:52;100700.06;;;4.38;86.58
50292;BME280;36190;54.980;73.388;2022-10-18T00:34:20;100706.69;;;4.32;86.45
50292;BME280;36190;54.980;73.388;2022-10-18T00:36:47;100695.00;;;4.23;86.46
50292;BME280;36190;54.980;73.388;2022-10-18T00:39:16;100701.88;;;4.15;86.88
50292;BME280;36190;54.980;73.388;2022-10-18T00:41:44;100702.94;;;4.12;86.92
50292;BME280;36190;54.980;73.388;2022-10-18T00:47:18;100692.50;;;4.10;86.89
50292;BME280;36190;54.980;73.388;2022-10-18T00:49:49;100676.66;;;3.99;86.97
50292;BME280;36190;54.980;73.388;2022-10-18T00:52:21;100695.59;;;4.04;87.04
50292;BME280;36190;54.980;73.388;2022-10-18T00:54:51;100691.03;;;3.95;87.31
50292;BME280;36190;54.980;73.388;2022-10-18T00:57:19;100690.19;;;3.94;87.42
50292;BME280;36190;54.980;73.388;2022-10-18T00:59:46;100697.06;;;3.97;87.35
50292;BME280;36190;54.980;73.388;2022-10-18T01:02:14;100695.94;;;3.99;87.55
50292;BME280;36190;54.980;73.388;2022-10-18T01:04:45;100681.06;;;3.98;87.65
50292;BME280;36190;54.980;73.388;2022-10-18T01:07:20;100686.50;;;4.08;87.70
50292;BME280;36190;54.980;73.388;2022-10-18T01:09:58;100689.84;;;4.10;87.50
50292;BME280;36190;54.980;73.388;2022-10-18T01:12:34;100686.03;;;4.15;87.41
50292;BME280;36190;54.980;73.388;2022-10-18T01:15:09;100657.81;;;4.04;87.70
50292;BME280;36190;54.980;73.388;2022-10-18T01:17:44;100682.66;;;4.24;87.37
50292;BME280;36190;54.980;73.388;2022-10-18T01:20:34;100679.56;;;4.30;87.41
50292;BME280;36190;54.980;73.388;2022-10-18T01:23:06;100681.22;;;4.31;87.33
50292;BME280;36190;54.980;73.388;2022-10-18T01:25:41;100667.28;;;4.29;87.28
50292;BME280;36190;54.980;73.388;2022-10-18T01:28:27;100672.09;;;4.35;87.24
50292;BME280;36190;54.980;73.388;2022-10-18T01:31:00;100682.19;;;4.42;87.26
50292;BME280;36190;54.980;73.388;2022-10-18T01:33:34;100677.97;;;4.39;87.32
50292;BME280;36190;54.980;73.388;2022-10-18T01:36:05;100678.09;;;4.49;87.18
50292;BME280;36190;54.980;73.388;2022-10-18T01:38:35;100676.28;;;4.49;86.78
50292;BME280;36190;54.980;73.388;2022-10-18T01:41:06;100669.19;;;4.50;86.88
50292;BME280;36190;54.980;73.388;2022-10-18T01:43:36;100671.72;;;4.51;86.91
50292;BME280;36190;54.980;73.388;2022-10-18T01:46:07;100666.44;;;4.51;86.81
50292;BME280;36190;54.980;73.388;2022-10-18T01:48:35;100665.38;;;4.54;86.88
50292;BME280;36190;54.980;73.388;2022-10-18T01:51:04;100665.38;;;4.54;87.14
50292;BME280;36190;54.980;73.388;2022-10-18T01:53:33;100666.31;;;4.53;86.92
50292;BME280;36190;54.980;73.388;2022-10-18T01:56:16;100670.41;;;4.57;87.05
50292;BME280;36190;54.980;73.388;2022-10-18T01:58:54;100665.38;;;4.54;86.99
50292;BME280;36190;54.980;73.388;2022-10-18T02:01:30;100671.38;;;4.56;87.06
50292;BME280;36190;54.980;73.388;2022-10-18T02:04:07;100679.28;;;4.56;87.05
50292;BME280;36190;54.980;73.388;2022-10-18T02:06:41;100682.66;;;4.58;86.89
50292;BME280;36190;54.980;73.388;2022-10-18T02:09:12;100680.72;;;4.60;87.06
50292;BME280;36190;54.980;73.388;2022-10-18T02:11:44;100684.09;;;4.62;87.01
50292;BME280;36190;54.980;73.388;2022-10-18T02:14:14;100691.50;;;4.68;87.05
50292;BME280;36190;54.980;73.388;2022-10-18T02:16:46;100681.69;;;4.71;86.92
50292;BME280;36190;54.980;73.388;2022-10-18T02:19:17;100679.75;;;4.73;86.81
50292;BME280;36190;54.980;73.388;2022-10-18T02:21:47;100677.56;;;4.78;87.00
50292;BME280;36190;54.980;73.388;2022-10-18T02:24:17;100680.69;;;4.83;86.86
50292;BME280;36190;54.980;73.388;2022-10-18T02:26:45;100684.03;;;4.85;86.64
50292;BME280;36190;54.980;73.388;2022-10-18T02:29:13;100688.72;;;4.93;86.70
50292;BME280;36190;54.980;73.388;2022-10-18T02:31:45;100683.06;;;4.98;86.51
50292;BME280;36190;54.980;73.388;2022-10-18T02:34:21;100682.56;;;5.04;86.32
50292;BME280;36190;54.980;73.388;2022-10-18T02:36:51;100687.59;;;5.07;86.15
50292;BME280;36190;54.980;73.388;2022-10-18T02:39:22;100687.59;;;5.07;86.21
50292;BME280;36190;54.980;73.388;2022-10-18T02:41:52;100674.09;;;5.10;86.16
50292;BME280;36190;54.980;73.388;2022-10-18T02:44:19;100680.00;;;5.14;85.97
50292;BME280;36190;54.980;73.388;2022-10-18T02:46:48;100683.97;;;5.19;85.84
50292;BME280;36190;54.980;73.388;2022-10-18T02:49:16;100687.16;;;5.23;86.02
50292;BME280;36190;54.980;73.388;2022-10-18T02:51:43;100688.88;;;5.24;85.80
50292;BME280;36190;54.980;73.388;2022-10-18T02:54:10;100687.91;;;5.25;85.71
50292;BME280;36190;54.980;73.388;2022-10-18T02:56:38;100694.75;;;5.28;85.85
50292;BME280;36190;54.980;73.388;2022-10-18T02:59:05;100685.84;;;5.29;85.59
50292;BME280;36190;54.980;73.388;2022-10-18T03:01:33;100683.91;;;5.31;85.73
50292;BME280;36190;54.980;73.388;2022-10-18T03:04:02;100686.28;;;5.34;85.67
50292;BME280;36190;54.980;73.388;2022-10-18T03:06:30;100685.91;;;5.39;85.46
50292;BME280;36190;54.980;73.388;2022-10-18T03:08:58;100680.38;;;5.42;85.41
50292;BME280;36190;54.980;73.388;2022-10-18T03:11:25;100683.59;;;5.45;85.30
50292;BME280;36190;54.980;73.388;2022-10-18T03:13:52;100686.69;;;5.50;85.19
50292;BME280;36190;54.980;73.388;2022-10-18T03:16:20;100690.06;;;5.53;85.19
50292;BME280;36190;54.980;73.388;2022-10-18T03:18:47;100686.56;;;5.52;85.17
50292;BME280;36190;54.980;73.388;2022-10-18T03:21:16;100689.69;;;5.57;85.06
50292;BME280;36190;54.980;73.388;2022-10-18T03:23:43;100688.13;;;5.55;84.91
50292;BME280;36190;54.980;73.388;2022-10-18T03:26:11;100689.09;;;5.54;85.02
50292;BME280;36190;54.980;73.388;2022-10-18T03:28:38;100703.03;;;5.56;85.00
50292;BME280;36190;54.980;73.388;2022-10-18T03:31:05;100696.66;;;5.58;85.06
50292;BME280;36190;54.980;73.388;2022-10-18T03:33:33;100698.06;;;5.62;85.17
50292;BME280;36190;54.980;73.388;2022-10-18T03:36:00;100689.50;;;5.70;85.07
50292;BME280;36190;54.980;73.388;2022-10-18T03:38:29;100689.22;;;5.73;84.92
50292;BME280;36190;54.980;73.388;2022-10-18T03:40:56;100696.06;;;5.76;84.74
50292;BME280;36190;54.980;73.388;2022-10-18T03:43:24;100685.78;;;5.83;84.56
50292;BME280;36190;54.980;73.388;2022-10-18T03:45:51;100688.91;;;5.88;84.69
50292;BME280;36190;54.980;73.388;2022-10-18T03:48:19;100689.91;;;5.97;84.64
50292;BME280;36190;54.980;73.388;2022-10-18T03:50:46;100692.66;;;6.07;84.40
50292;BME280;36190;54.980;73.388;2022-10-18T03:53:14;100685.88;;;6.14;84.06
50292;BME280;36190;54.980;73.388;2022-10-18T03:55:43;100697.91;;;6.18;83.68
50292;BME280;36190;54.980;73.388;2022-10-18T03:58:10;100692.78;;;6.26;83.68
50292;BME280;36190;54.980;73.388;2022-10-18T04:00:37;100683.31;;;6.33;83.43
50292;BME280;36190;54.980;73.388;2022-10-18T04:03:05;100689.91;;;6.49;83.40
50292;BME280;36190;54.980;73.388;2022-10-18T04:05:32;100691.63;;;6.60;83.03
50292;BME280;36190;54.980;73.388;2022-10-18T04:08:01;100690.97;;;6.68;82.56
50292;BME280;36190;54.980;73.388;2022-10-18T04:10:29;100689.28;;;6.67;82.39
50292;BME280;36190;54.980;73.388;2022-10-18T04:12:58;100687.00;;;6.62;82.39
50292;BME280;36190;54.980;73.388;2022-10-18T04:15:25;100692.72;;;6.57;82.43
50292;BME280;36190;54.980;73.388;2022-10-18T04:17:52;100688.69;;;6.53;82.50
50292;BME280;36190;54.980;73.388;2022-10-18T04:20:21;100684.06;;;6.55;82.75
50292;BME280;36190;54.980;73.388;2022-10-18T04:22:49;100687.88;;;6.63;82.71
50292;BME280;36190;54.980;73.388;2022-10-18T04:25:16;100684.94;;;6.66;82.62
50292;BME280;36190;54.980;73.388;2022-10-18T04:27:44;100688.84;;;6.62;82.67
50292;BME280;36190;54.980;73.388;2022-10-18T04:30:12;100686.59;;;6.57;82.86
50292;BME280;36190;54.980;73.388;2022-10-18T04:32:40;100689.66;;;6.52;83.13
50292;BME280;36190;54.980;73.388;2022-10-18T04:35:08;100685.28;;;6.41;83.18
50292;BME280;36190;54.980;73.388;2022-10-18T04:37:36;100688.47;;;6.35;83.45
50292;BME280;36190;54.980;73.388;2022-10-18T04:40:04;100689.56;;;6.32;83.96
50292;BME280;36190;54.980;73.388;2022-10-18T04:42:31;100690.41;;;6.33;83.96
50292;BME280;36190;54.980;73.388;2022-10-18T04:44:59;100684.25;;;6.32;83.78
50292;BME280;36190;54.980;73.388;2022-10-18T04:47:28;100687.94;;;6.41;84.01
50292;BME280;36190;54.980;73.388;2022-10-18T04:49:55;100681.44;;;6.55;83.91
50292;BME280;36190;54.980;73.388;2022-10-18T04:52:22;100680.59;;;6.55;83.69
50292;BME280;36190;54.980;73.388;2022-10-18T04:54:49;100681.72;;;6.52;84.01
50292;BME280;36190;54.980;73.388;2022-10-18T04:57:17;100683.81;;;6.58;84.10
50292;BME280;36190;54.980;73.388;2022-10-18T04:59:44;100684.81;;;6.67;83.97
50292;BME280;36190;54.980;73.388;2022-10-18T05:02:12;100672.66;;;6.65;83.75
50292;BME280;36190;54.980;73.388;2022-10-18T05:04:40;100674.75;;;6.61;83.60
50292;BME280;36190;54.980;73.388;2022-10-18T05:07:08;100674.31;;;6.56;83.92
50292;BME280;36190;54.980;73.388;2022-10-18T05:09:35;100674.91;;;6.59;83.82
50292;BME280;36190;54.980;73.388;2022-10-18T05:12:03;100679.63;;;6.66;83.95
50292;BME280;36190;54.980;73.388;2022-10-18T05:14:30;100682.72;;;6.71;83.53
50292;BME280;36190;54.980;73.388;2022-10-18T05:16:57;100679.25;;;6.70;83.71
50292;BME280;36190;54.980;73.388;2022-10-18T05:19:25;100681.59;;;6.64;83.75
50292;BME280;36190;54.980;73.388;2022-10-18T05:21:53;100675.16;;;6.56;84.02
50292;BME280;36190;54.980;73.388;2022-10-18T05:24:21;100686.06;;;6.63;84.01
50292;BME280;36190;54.980;73.388;2022-10-18T05:26:48;100678.56;;;6.78;84.11
50292;BME280;36190;54.980;73.388;2022-10-18T05:29:15;100674.38;;;6.85;83.77
50292;BME280;36190;54.980;73.388;2022-10-18T05:31:43;100674.66;;;6.92;83.63
50292;BME280;36190;54.980;73.388;2022-10-18T05:34:10;100669.25;;;6.94;83.40
50292;BME280;36190;54.980;73.388;2022-10-18T05:36:37;100673.84;;;6.92;83.54
50292;BME280;36190;54.980;73.388;2022-10-18T05:39:06;100673.44;;;6.96;83.50
50292;BME280;36190;54.980;73.388;2022-10-18T05:41:34;100672.47;;;7.07;83.57
50292;BME280;36190;54.980;73.388;2022-10-18T05:44:02;100672.75;;;7.14;83.56
50292;BME280;36190;54.980;73.388;2022-10-18T05:46:30;100669.41;;;7.12;83.41
50292;BME280;36190;54.980;73.388;2022-10-18T05:48:57;100672.16;;;7.00;83.10
50292;BME280;36190;54.980;73.388;2022-10-18T05:51:25;100666.59;;;6.94;83.42
50292;BME280;36190;54.980;73.388;2022-10-18T05:53:52;100670.47;;;6.90;83.59
50292;BME280;36190;54.980;73.388;2022-10-18T05:56:21;100674.38;;;6.85;83.77
50292;BME280;36190;54.980;73.388;2022-10-18T05:58:49;100676.50;;;6.92;83.72
50292;BME280;36190;54.980;73.388;2022-10-18T06:01:17;100675.22;;;6.96;83.69
50292;BME280;36190;54.980;73.388;2022-10-18T06:03:45;100672.72;;;6.94;83.39
50292;BME280;36190;54.980;73.388;2022-10-18T06:06:13;100664.47;;;6.87;83.62
50292;BME280;36190;54.980;73.388;2022-10-18T06:08:42;100668.25;;;6.95;83.85
50292;BME280;36190;54.980;73.388;2022-10-18T06:11:11;100665.75;;;7.03;83.85
50292;BME280;36190;54.980;73.388;2022-10-18T06:13:41;100668.25;;;7.14;83.68
50292;BME280;36190;54.980;73.388;2022-10-18T06:16:09;100676.25;;;7.24;83.46
50292;BME280;36190;54.980;73.388;2022-10-18T06:18:37;100667.31;;;7.15;83.17
50292;BME280;36190;54.980;73.388;2022-10-18T06:21:04;100666.59;;;7.13;83.06
50292;BME280;36190;54.980;73.388;2022-10-18T06:23:33;100668.69;;;7.10;83.24
50292;BME280;36190;54.980;73.388;2022-10-18T06:26:01;100666.88;;;7.10;83.43
50292;BME280;36190;54.980;73.388;2022-10-18T06:28:29;100666.59;;;7.13;83.48
50292;BME280;36190;54.980;73.388;2022-10-18T06:30:58;100668.25;;;7.14;83.43
50292;BME280;36190;54.980;73.388;2022-10-18T06:33:26;100658.63;;;7.13;83.45
50292;BME280;36190;54.980;73.388;2022-10-18T06:35:55;100664.66;;;7.15;83.47
50292;BME280;36190;54.980;73.388;2022-10-18T06:38:22;100656.28;;;7.20;83.79
50292;BME280;36190;54.980;73.388;2022-10-18T06:40:50;100658.22;;;7.28;83.49
50292;BME280;36190;54.980;73.388;2022-10-18T06:43:17;100661.84;;;7.27;83.40
50292;BME280;36190;54.980;73.388;2022-10-18T06:45:45;100650.56;;;7.25;83.43
50292;BME280;36190;54.980;73.388;2022-10-18T06:48:14;100654.03;;;7.35;83.51
50292;BME280;36190;54.980;73.388;2022-10-18T06:50:41;100651.94;;;7.49;83.40
50292;BME280;36190;54.980;73.388;2022-10-18T06:53:08;100652.31;;;7.54;83.05
50292;BME280;36190;54.980;73.388;2022-10-18T06:55:36;100651.75;;;7.60;83.00
50292;BME280;36190;54.980;73.388;2022-10-18T06:58:03;100650.91;;;7.60;82.98
50292;BME280;36190;54.980;73.388;2022-10-18T07:00:30;100651.50;;;7.53;82.95
50292;BME280;36190;54.980;73.388;2022-10-18T07:02:58;100642.56;;;7.45;83.15
50292;BME280;36190;54.980;73.388;2022-10-18T07:05:26;100643.97;;;7.39;83.14
50292;BME280;36190;54.980;73.388;2022-10-18T07:07:54;100646.50;;;7.40;83.59
50292;BME280;36190;54.980;73.388;2022-10-18T07:10:21;100643.97;;;7.49;83.55
50292;BME280;36190;54.980;73.388;2022-10-18T07:12:49;100638.63;;;7.59;83.21
50292;BME280;36190;54.980;73.388;2022-10-18T07:15:16;100631.91;;;7.64;83.03
50292;BME280;36190;54.980;73.388;2022-10-18T07:17:43;100639.88;;;7.64;83.00
50292;BME280;36190;54.980;73.388;2022-10-18T07:20:11;100631.91;;;7.64;82.85
50292;BME280;36190;54.980;73.388;2022-10-18T07:22:40;100622.25;;;7.63;82.95
50292;BME280;36190;54.980;73.388;2022-10-18T07:25:07;100631.38;;;7.61;82.78
50292;BME280;36190;54.980;73.388;2022-10-18T07:27:35;100614.59;;;7.50;82.96
50292;BME280;36190;54.980;73.388;2022-10-18T07:30:04;100624.94;;;7.53;82.85
50292;BME280;36190;54.980;73.388;2022-10-18T07:32:31;100625.38;;;7.49;83.13
50292;BME280;36190;54.980;73.388;2022-10-18T07:34:59;100627.31;;;7.47;83.35
50292;BME280;36190;54.980;73.388;2022-10-18T07:37:27;100619.91;;;7.50;83.32
50292;BME280;36190;54.980;73.388;2022-10-18T07:39:56;100617.94;;;7.62;83.38
50292;BME280;36190;54.980;73.388;2022-10-18T07:42:23;100617.34;;;7.78;83.10
50292;BME280;36190;54.980;73.388;2022-10-18T07:44:51;100612.09;;;7.96;82.90
50292;BME280;36190;54.980;73.388;2022-10-18T07:47:18;100616.66;;;8.14;82.47
50292;BME280;36190;54.980;73.388;2022-10-18T07:49:45;100619.34;;;8.32;82.17
50292;BME280;36190;54.980;73.388;2022-10-18T07:52:13;100614.56;;;8.36;81.50
50292;BME280;36190;54.980;73.388;2022-10-18T07:54:40;100604.84;;;8.26;81.54
50292;BME280;36190;54.980;73.388;2022-10-18T07:57:09;100601.78;;;8.21;81.42
50292;BME280;36190;54.980;73.388;2022-10-18T07:59:36;100609.75;;;8.21;81.26
50292;BME280;36190;54.980;73.388;2022-10-18T08:02:04;100600.69;;;8.42;81.09
50292;BME280;36190;54.980;73.388;2022-10-18T08:04:31;100594.44;;;8.61;80.48
50292;BME280;36190;54.980;73.388;2022-10-18T08:06:58;100593.84;;;8.68;80.03
50292;BME280;36190;54.980;73.388;2022-10-18T08:09:26;100594.44;;;8.61;79.52
50292;BME280;36190;54.980;73.388;2022-10-18T08:11:53;100603.44;;;8.60;79.49
50292;BME280;36190;54.980;73.388;2022-10-18T08:14:22;100598.69;;;8.54;79.18
50292;BME280;36190;54.980;73.388;2022-10-18T08:16:49;100595.34;;;8.52;79.45
50292;BME280;36190;54.980;73.388;2022-10-18T08:19:17;100588.59;;;8.58;79.49
50292;BME280;36190;54.980;73.388;2022-10-18T08:21:44;100592.31;;;8.65;79.20
50292;BME280;36190;54.980;73.388;2022-10-18T08:24:11;100586.41;;;8.71;78.83
50292;BME280;36190;54.980;73.388;2022-10-18T08:26:39;100592.19;;;8.66;78.22
50292;BME280;36190;54.980;73.388;2022-10-18T08:29:06;100575.59;;;8.55;78.20
50292;BME280;36190;54.980;73.388;2022-10-18T08:31:35;100590.16;;;8.50;78.60
50292;BME280;36190;54.980;73.388;2022-10-18T08:34:02;100577.84;;;8.49;78.54
50292;BME280;36190;54.980;73.388;2022-10-18T08:36:29;100572.94;;;8.55;78.48
50292;BME280;36190;54.980;73.388;2022-10-18T08:38:57;100586.69;;;8.68;78.24
50292;BME280;36190;54.980;73.388;2022-10-18T08:44:26;100577.47;;;9.35;76.56
50292;BME280;36190;54.980;73.388;2022-10-18T08:46:59;100565.34;;;9.41;75.69
50292;BME280;36190;54.980;73.388;2022-10-18T08:49:36;100573.78;;;9.36;75.43
50292;BME280;36190;54.980;73.388;2022-10-18T08:52:13;100569.03;;;9.21;75.44
50292;BME280;36190;54.980;73.388;2022-10-18T08:54:51;100567.28;;;9.12;75.79
50292;BME280;36190;54.980;73.388;2022-10-18T08:57:20;100570.75;;;9.04;75.75
50292;BME280;36190;54.980;73.388;2022-10-18T08:59:47;100570.22;;;9.01;75.70
50292;BME280;36190;54.980;73.388;2022-10-18T09:02:34;100571.34;;;8.98;75.60
50292;BME280;36190;54.980;73.388;2022-10-18T09:05:16;100564.34;;;8.97;75.53
50292;BME280;36190;54.980;73.388;2022-10-18T09:10:54;100558.44;;;9.03;75.08
50292;BME280;36190;54.980;73.388;2022-10-18T09:16:32;100561.56;;;8.80;75.16
50292;BME280;36190;54.980;73.388;2022-10-18T09:19:10;100554.19;;;8.74;74.98
50292;BME280;36190;54.980;73.388;2022-10-18T09:21:50;100541.00;;;8.73;74.92
50292;BME280;36190;54.980;73.388;2022-10-18T09:24:24;100548.84;;;8.74;75.18
50292;BME280;36190;54.980;73.388;2022-10-18T09:26:56;100555.03;;;8.75;75.01
50292;BME280;36190;54.980;73.388;2022-10-18T09:29:39;100546.59;;;8.79;74.86
50292;BME280;36190;54.980;73.388;2022-10-18T09:32:24;100552.88;;;8.78;74.67
50292;BME280;36190;54.980;73.388;2022-10-18T09:34:57;100535.88;;;8.71;74.45
50292;BME280;36190;54.980;73.388;2022-10-18T09:37:28;100549.69;;;8.75;74.55
50292;BME280;36190;54.980;73.388;2022-10-18T09:40:06;100541.19;;;8.71;74.71
50292;BME280;36190;54.980;73.388;2022-10-18T09:42:41;100543.91;;;8.61;74.97
50292;BME280;36190;54.980;73.388;2022-10-18T09:45:20;100549.00;;;8.55;75.52
50292;BME280;36190;54.980;73.388;2022-10-18T09:47:56;100536.47;;;8.37;76.03
50292;BME280;36190;54.980;73.388;2022-10-18T09:50:33;100547.75;;;8.31;76.79
50292;BME280;36190;54.980;73.388;2022-10-18T09:53:09;100550.13;;;8.24;77.17
50292;BME280;36190;54.980;73.388;2022-10-18T09:55:52;100553.56;;;8.16;77.88
50292;BME280;36190;54.980;73.388;2022-10-18T09:58:23;100549.81;;;8.09;78.24
50292;BME280;36190;54.980;73.388;2022-10-18T10:00:52;100555.16;;;7.99;78.67
50292;BME280;36190;54.980;73.388;2022-10-18T10:03:20;100556.91;;;7.90;79.26
50292;BME280;36190;54.980;73.388;2022-10-18T10:06:01;100554.53;;;7.87;80.03
50292;BME280;36190;54.980;73.388;2022-10-18T10:08:32;100556.09;;;7.80;80.27
50292;BME280;36190;54.980;73.388;2022-10-18T10:11:00;100551.66;;;7.70;80.62
50292;BME280;36190;54.980;73.388;2022-10-18T10:13:27;100557.16;;;7.59;81.21
50292;BME280;36190;54.980;73.388;2022-10-18T10:15:55;100538.59;;;7.39;81.87
50292;BME280;36190;54.980;73.388;2022-10-18T10:18:25;100547.56;;;7.38;82.27
50292;BME280;36190;54.980;73.388;2022-10-18T10:20:57;100540.88;;;7.34;83.13
50292;BME280;36190;54.980;73.388;2022-10-18T10:23:27;100549.22;;;7.39;83.57
50292;BME280;36190;54.980;73.388;2022-10-18T10:25:57;100553.84;;;7.37;83.40
50292;BME280;36190;54.980;73.388;2022-10-18T10:28:27;100559.31;;;7.36;83.91
50292;BME280;36190;54.980;73.388;2022-10-18T10:31:16;100562.97;;;7.25;84.16
50292;BME280;36190;54.980;73.388;2022-10-18T10:33:45;100542.03;;;6.92;84.08
50292;BME280;36190;54.980;73.388;2022-10-18T10:36:18;100552.25;;;6.77;84.60
50292;BME280;36190;54.980;73.388;2022-10-18T10:39:01;100556.00;;;6.65;85.25
50292;BME280;36190;54.980;73.388;2022-10-18T10:41:30;100561.44;;;6.53;85.26
50292;BME280;36190;54.980;73.388;2022-10-18T10:43:57;100554.16;;;6.45;85.61
50292;BME280;36190;54.980;73.388;2022-10-18T10:46:33;100559.59;;;6.44;86.03
50292;BME280;36190;54.980;73.388;2022-10-18T10:49:00;100554.84;;;6.38;85.95
50292;BME280;36190;54.980;73.388;2022-10-18T10:51:31;100555.66;;;6.28;86.03
50292;BME280;36190;54.980;73.388;2022-10-18T10:54:00;100538.19;;;6.16;86.36
50292;BME280;36190;54.980;73.388;2022-10-18T10:56:31;100544.38;;;6.26;86.55
50292;BME280;36190;54.980;73.388;2022-10-18T10:59:07;100552.59;;;6.33;86.84
50292;BME280;36190;54.980;73.388;2022-10-18T11:01:34;100546.75;;;6.29;86.73
50292;BME280;36190;54.980;73.388;2022-10-18T11:04:21;100547.72;;;6.28;86.43
50292;BME280;36190;54.980;73.388;2022-10-18T11:06:56;100543.94;;;6.21;86.55
50292;BME280;36190;54.980;73.388;2022-10-18T11:09:36;100548.13;;;6.24;86.74
50292;BME280;36190;54.980;73.388;2022-10-18T11:12:30;100550.09;;;6.31;86.74
50292;BME280;36190;54.980;73.388;2022-10-18T11:15:06;100549.53;;;6.38;86.66
50292;BME280;36190;54.980;73.388;2022-10-18T11:17:41;100541.59;;;6.38;86.46
50292;BME280;36190;54.980;73.388;2022-10-18T11:20:24;100528.06;;;6.41;86.64
50292;BME280;36190;54.980;73.388;2022-10-18T11:23:00;100518.88;;;6.45;86.87
50292;BME280;36190;54.980;73.388;2022-10-18T11:25:51;100525.88;;;6.56;87.17
50292;BME280;36190;54.980;73.388;2022-10-18T11:28:28;100529.34;;;6.56;86.89
50292;BME280;36190;54.980;73.388;2022-10-18T11:31:07;100533.09;;;6.54;86.94
50292;BME280;36190;54.980;73.388;2022-10-18T11:33:46;100526.41;;;6.50;86.98
50292;BME280;36190;54.980;73.388;2022-10-18T11:36:21;100524.31;;;6.53;87.10
50292;BME280;36190;54.980;73.388;2022-10-18T11:38:55;100524.31;;;6.53;87.03
50292;BME280;36190;54.980;73.388;2022-10-18T11:41:30;100514.25;;;6.47;86.91
50292;BME280;36190;54.980;73.388;2022-10-18T11:43:59;100518.72;;;6.37;87.07
50292;BME280;36190;54.980;73.388;2022-10-18T11:46:46;100527.22;;;6.30;87.52
50292;BME280;36190;54.980;73.388;2022-10-18T11:49:38;100522.03;;;6.29;87.93
50292;BME280;36190;54.980;73.388;2022-10-18T11:52:12;100513.56;;;6.35;88.12
50292;BME280;36190;54.980;73.388;2022-10-18T11:54:58;100509.25;;;6.44;88.45
50292;BME280;36190;54.980;73.388;2022-10-18T11:57:45;100511.34;;;6.50;88.45
50292;BME280;36190;54.980;73.388;2022-10-18T12:00:21;100507.97;;;6.48;88.37
50292;BME280;36190;54.980;73.388;2022-10-18T12:03:05;100514.81;;;6.51;88.60
50292;BME280;36190;54.980;73.388;2022-10-18T12:05:40;100509.53;;;6.51;88.51
50292;BME280;36190;54.980;73.388;2022-10-18T12:08:12;100512.03;;;6.52;88.73
50292;BME280;36190;54.980;73.388;2022-10-18T12:10:46;100512.44;;;6.57;88.91
50292;BME280;36190;54.980;73.388;2022-10-18T12:13:20;100510.09;;;6.64;89.05
50292;BME280;36190;54.980;73.388;2022-10-18T12:15:48;100510.06;;;6.74;89.47
50292;BME280;36190;54.980;73.388;2022-10-18T12:18:19;100525.28;;;6.72;88.82
50292;BME280;36190;54.980;73.388;2022-10-18T12:20:49;100517.63;;;6.69;88.42
50292;BME280;36190;54.980;73.388;2022-10-18T12:23:22;100504.06;;;6.62;88.31
50292;BME280;36190;54.980;73.388;2022-10-18T12:25:55;100495.44;;;6.50;88.61
50292;BME280;36190;54.980;73.388;2022-10-18T12:28:32;100504.78;;;6.64;88.75
50292;BME280;36190;54.980;73.388;2022-10-18T12:31:05;100509.69;;;6.69;88.83
50292;BME280;36190;54.980;73.388;2022-10-18T12:33:37;100498.78;;;6.72;88.57
50292;BME280;36190;54.980;73.388;2022-10-18T12:36:14;100498.50;;;6.75;88.61
50292;BME280;36190;54.980;73.388;2022-10-18T12:38:48;100495.16;;;6.73;88.72
50292;BME280;36190;54.980;73.388;2022-10-18T12:41:21;100502.00;;;6.76;88.58
50292;BME280;36190;54.980;73.388;2022-10-18T12:43:51;100506.19;;;6.78;88.43
50292;BME280;36190;54.980;73.388;2022-10-18T12:46:20;100493.78;;;6.79;88.46
50292;BME280;36190;54.980;73.388;2022-10-18T12:48:59;100502.00;;;6.85;88.57
50292;BME280;36190;54.980;73.388;2022-10-18T12:51:28;100508.53;;;6.91;88.58
50292;BME280;36190;54.980;73.388;2022-10-18T12:54:10;100494.84;;;6.96;88.57
50292;BME280;36190;54.980;73.388;2022-10-18T12:56:41;100511.19;;;7.01;88.41
50292;BME280;36190;54.980;73.388;2022-10-18T13:02:25;100516.63;;;7.09;88.02
50292;BME280;36190;54.980;73.388;2022-10-18T13:04:52;100521.63;;;7.12;87.89
50292;BME280;36190;54.980;73.388;2022-10-18T13:07:33;100518.00;;;7.13;87.76
50292;BME280;36190;54.980;73.388;2022-10-18T13:10:38;100515.06;;;7.17;87.87
50292;BME280;36190;54.980;73.388;2022-10-18T13:13:37;100521.06;;;7.19;87.41
50292;BME280;36190;54.980;73.388;2022-10-18T13:16:20;100507.13;;;7.17;87.33
50292;BME280;36190;54.980;73.388;2022-10-18T13:18:53;100509.88;;;7.25;87.27
50292;BME280;36190;54.980;73.388;2022-10-18T13:21:33;100511.56;;;7.26;87.17
50292;BME280;36190;54.980;73.388;2022-10-18T13:24:23;100514.22;;;7.26;87.34
50292;BME280;36190;54.980;73.388;2022-10-18T13:30:04;100503.19;;;7.21;87.30